Time;durP1;ratioP1;P1;durP2;ratioP2;P2;SDS_P1;SDS_P2;PMS_P1;PMS_P2;Temp;Humidity;BMP_temperature;BMP_pressure;BME280_temperature;BME280_humidity;BME280_pressure;Samples;Min_cycle;Max_cycle;Signal;HPM_P1;HPM_P2
2021/08/03 00:02:18;;;;;;;2.88;1.65;;;18.10;80.40;;;;;;5009976;28;20026;-71
2021/08/03 00:05:05;;;;;;;2.58;1.70;;;18.10;80.70;;;;;;5010002;28;20121;-71
2021/08/03 00:07:59;;;;;;;2.42;1.60;;;18.10;80.80;;;;;;5011294;28;20044;-71
2021/08/03 00:10:46;;;;;;;12.95;2.00;;;18.10;81.30;;;;;;5009614;28;20030;-71
2021/08/03 00:13:36;;;;;;;2.63;1.80;;;18.00;81.30;;;;;;5009915;28;20029;-71
2021/08/03 00:16:22;;;;;;;2.53;1.50;;;18.00;81.40;;;;;;5010936;28;20414;-71
2021/08/03 00:19:10;;;;;;;5.32;1.90;;;18.00;81.40;;;;;;5010472;28;20038;-71
2021/08/03 00:21:57;;;;;;;3.03;1.50;;;18.00;81.70;;;;;;4995887;28;20026;-71
2021/08/03 00:24:43;;;;;;;2.83;1.73;;;17.90;81.80;;;;;;5009901;28;20044;-72
2021/08/03 00:27:29;;;;;;;5.18;1.80;;;17.90;82.00;;;;;;5011407;28;20048;-71
2021/08/03 00:30:15;;;;;;;4.80;2.00;;;17.90;82.20;;;;;;4995757;28;20038;-71
2021/08/03 00:33:02;;;;;;;3.20;1.80;;;17.90;83.00;;;;;;5010505;28;20033;-70
2021/08/03 00:35:51;;;;;;;3.50;2.30;;;17.90;82.80;;;;;;5010091;28;20040;-69
2021/08/03 00:38:37;;;;;;;2.78;1.70;;;17.80;82.90;;;;;;5011396;28;20065;-69
2021/08/03 00:41:36;;;;;;;3.35;1.60;;;17.90;83.20;;;;;;4998782;28;20030;-70
2021/08/03 00:44:46;;;;;;;3.35;2.17;;;17.80;83.50;;;;;;5013950;28;20053;-70
2021/08/03 00:47:32;;;;;;;4.18;1.67;;;17.70;83.60;;;;;;5011132;28;20402;-70
2021/08/03 00:50:18;;;;;;;6.18;2.13;;;17.70;83.90;;;;;;4998176;28;20542;-70
2021/08/03 00:53:04;;;;;;;3.47;1.67;;;17.70;84.10;;;;;;4992195;28;20058;-70
2021/08/03 00:55:50;;;;;;;3.50;1.80;;;17.70;84.20;;;;;;5006447;28;20820;-70
2021/08/03 00:58:38;;;;;;;3.38;1.80;;;17.60;84.30;;;;;;5010513;28;20038;-70
2021/08/03 01:01:24;;;;;;;4.30;1.63;;;17.60;84.70;;;;;;4990970;28;20034;-70
2021/08/03 01:04:11;;;;;;;2.72;1.80;;;17.60;84.80;;;;;;5007383;28;20026;-72
2021/08/03 01:07:17;;;;;;;2.20;1.55;;;17.60;85.00;;;;;;5010503;28;20049;-72
2021/08/03 01:10:27;;;;;;;2.47;1.52;;;17.60;85.20;;;;;;5010923;28;20468;-72
2021/08/03 01:13:34;;;;;;;3.28;2.20;;;17.60;85.30;;;;;;5017199;28;20537;-72
2021/08/03 01:16:29;;;;;;;5.32;2.00;;;17.60;85.70;;;;;;5011088;28;20029;-71
2021/08/03 01:19:38;;;;;;;2.20;1.60;;;17.60;85.80;;;;;;4993906;28;20030;-70
2021/08/03 01:23:16;;;;;;;3.72;1.52;;;17.50;85.80;;;;;;4997798;28;20068;-70
2021/08/03 01:26:31;;;;;;;2.53;1.58;;;17.50;85.90;;;;;;5008167;28;20041;-70
2021/08/03 01:29:21;;;;;;;2.88;1.55;;;17.50;86.30;;;;;;5010374;28;20037;-70
2021/08/03 01:32:11;;;;;;;3.03;1.90;;;17.50;86.50;;;;;;5009651;28;20890;-70
2021/08/03 01:34:59;;;;;;;2.50;1.60;;;17.50;86.90;;;;;;5010791;28;20409;-70
2021/08/03 01:37:46;;;;;;;3.55;1.83;;;17.40;87.00;;;;;;4996754;28;20026;-70
2021/08/03 01:40:35;;;;;;;2.92;1.75;;;17.40;87.50;;;;;;4991170;28;20038;-69
2021/08/03 01:43:01;;;;;;;3.15;1.70;;;17.40;87.80;;;;;;4998156;28;20034;-70
2021/08/03 01:45:49;;;;;;;4.50;2.00;;;17.40;88.00;;;;;;5011005;28;20406;-70
2021/08/03 01:48:34;;;;;;;2.85;1.80;;;17.40;88.10;;;;;;5009226;28;20093;-70
2021/08/03 01:51:19;;;;;;;;;;;17.50;88.10;;;;;;5013347;28;20550;-70
2021/08/03 01:54:04;;;;;;;3.33;1.60;;;17.40;87.30;;;;;;5013008;28;20036;-70
2021/08/03 01:56:48;;;;;;;;;;;17.40;88.00;;;;;;5015148;28;20052;-69
2021/08/03 01:59:33;;;;;;;3.90;1.77;;;17.40;87.30;;;;;;5013679;28;19956;-70
2021/08/03 02:02:19;;;;;;;5.28;1.85;;;17.40;88.00;;;;;;5012535;28;20569;-71
2021/08/03 02:05:03;;;;;;;3.33;1.58;;;17.30;88.20;;;;;;5014540;28;20084;-71
2021/08/03 02:07:48;;;;;;;2.47;1.50;;;17.30;88.30;;;;;;5008382;28;20040;-71
2021/08/03 02:10:34;;;;;;;5.28;1.60;;;17.30;88.40;;;;;;5007305;28;20398;-71
2021/08/03 02:13:18;;;;;;;2.85;1.75;;;17.40;88.50;;;;;;5012635;28;20061;-71
2021/08/03 02:16:03;;;;;;;2.95;1.80;;;17.30;88.70;;;;;;4999550;28;20068;-71
2021/08/03 02:18:47;;;;;;;2.35;1.77;;;17.30;89.10;;;;;;5011798;28;20044;-72
2021/08/03 02:21:31;;;;;;;3.30;1.85;;;17.30;89.20;;;;;;5013590;28;20070;-71
2021/08/03 02:24:15;;;;;;;2.83;1.63;;;17.30;89.20;;;;;;5011715;28;20104;-71
2021/08/03 02:26:59;;;;;;;3.80;1.70;;;17.30;89.50;;;;;;5012577;28;20503;-71
2021/08/03 02:29:45;;;;;;;3.22;1.75;;;17.30;89.70;;;;;;4994426;28;20041;-71
2021/08/03 02:32:40;;;;;;;2.72;1.60;;;17.30;89.80;;;;;;5000743;28;20048;-71
2021/08/03 02:35:31;;;;;;;2.28;1.60;;;17.30;89.70;;;;;;5012664;28;20533;-71
2021/08/03 02:38:19;;;;;;;3.88;1.88;;;17.30;90.00;;;;;;5012303;28;20132;-70
2021/08/03 02:41:04;;;;;;;3.53;1.80;;;17.30;90.30;;;;;;5013089;28;20052;-72
2021/08/03 02:43:50;;;;;;;;;;;17.30;90.20;;;;;;5012699;28;20161;-72
2021/08/03 02:46:36;;;;;;;;;;;17.20;89.70;;;;;;5013423;28;19932;-71
2021/08/03 02:49:34;;;;;;;2.28;1.23;;;17.20;89.20;;;;;;5012115;28;19976;-71
2021/08/03 02:52:22;;;;;;;2.20;1.77;;;17.20;90.20;;;;;;5011277;28;20028;-71
2021/08/03 02:55:17;;;;;;;3.97;2.38;;;17.20;90.40;;;;;;5013396;28;20045;-72
2021/08/03 02:58:10;;;;;;;2.85;1.77;;;17.10;90.60;;;;;;5001520;28;20037;-71
2021/08/03 03:00:55;;;;;;;3.90;1.90;;;17.20;90.70;;;;;;5012835;28;20053;-71
2021/08/03 03:03:45;;;;;;;2.90;1.60;;;17.20;90.70;;;;;;5012415;28;20095;-72
2021/08/03 03:06:32;;;;;;;2.08;1.48;;;17.20;90.80;;;;;;5012594;28;20060;-72
2021/08/03 03:09:21;;;;;;;5.38;2.42;;;17.20;90.80;;;;;;5012189;28;20033;-72
2021/08/03 03:12:06;;;;;;;5.07;2.00;;;17.20;90.80;;;;;;5009828;28;20108;-72
2021/08/03 03:14:53;;;;;;;2.63;1.75;;;17.20;90.80;;;;;;4993717;28;20101;-72
2021/08/03 03:17:37;;;;;;;3.80;1.80;;;17.10;90.90;;;;;;5008514;28;20136;-72
2021/08/03 03:20:22;;;;;;;3.60;1.92;;;17.10;90.80;;;;;;5013073;28;20049;-71
2021/08/03 03:23:07;;;;;;;4.88;2.05;;;17.10;90.90;;;;;;5011657;28;20033;-74
2021/08/03 03:25:52;;;;;;;;;;;17.10;90.90;;;;;;5012609;28;20045;-71
2021/08/03 03:28:39;;;;;;;2.92;1.90;;;17.10;90.60;;;;;;5010988;28;19919;-72
2021/08/03 03:31:28;;;;;;;2.67;1.80;;;17.10;90.90;;;;;;5012377;28;20044;-72
2021/08/03 03:34:13;;;;;;;3.38;1.80;;;17.10;91.00;;;;;;5011463;28;20045;-72
2021/08/03 03:36:58;;;;;;;4.05;2.17;;;17.10;91.00;;;;;;5012047;28;20525;-72
2021/08/03 03:39:43;;;;;;;3.17;1.80;;;17.10;91.00;;;;;;4993445;28;20081;-72
2021/08/03 03:42:33;;;;;;;3.20;2.00;;;17.00;91.10;;;;;;5006151;28;20076;-72
2021/08/03 03:45:18;;;;;;;3.65;1.92;;;17.00;91.30;;;;;;4991949;28;20044;-72
2021/08/03 03:48:09;;;;;;;2.67;1.83;;;17.00;91.30;;;;;;5004098;28;20505;-72
2021/08/03 03:50:59;;;;;;;3.72;2.30;;;17.00;91.30;;;;;;4994844;28;20030;-72
2021/08/03 03:53:52;;;;;;;4.70;1.80;;;17.10;91.40;;;;;;5009219;28;20487;-72
2021/08/03 03:56:46;;;;;;;3.08;1.90;;;17.00;91.40;;;;;;5011258;28;20037;-72
2021/08/03 03:59:35;;;;;;;4.33;2.20;;;17.10;91.50;;;;;;5007864;28;20040;-71
2021/08/03 04:02:22;;;;;;;3.45;2.08;;;17.10;91.50;;;;;;5010092;28;20290;-71
2021/08/03 04:05:14;;;;;;;3.60;1.80;;;17.20;91.50;;;;;;5010670;28;20030;-71
2021/08/03 04:08:00;;;;;;;3.10;2.10;;;17.20;91.60;;;;;;5008731;28;20112;-71
2021/08/03 04:10:46;;;;;;;4.45;1.85;;;17.20;91.60;;;;;;4998414;28;20554;-71
2021/08/03 04:13:32;;;;;;;4.90;1.90;;;17.20;91.50;;;;;;5010536;28;20546;-70
2021/08/03 04:16:18;;;;;;;3.25;1.98;;;17.40;91.60;;;;;;5012458;28;20068;-71
2021/08/03 04:19:04;;;;;;;3.13;1.80;;;17.40;91.60;;;;;;5008960;28;20173;-71
2021/08/03 04:21:50;;;;;;;4.53;1.83;;;17.40;91.60;;;;;;5014114;28;20065;-71
2021/08/03 04:24:36;;;;;;;3.83;2.00;;;17.40;91.60;;;;;;5014221;28;20040;-71
2021/08/03 04:27:22;;;;;;;3.58;1.90;;;17.40;91.60;;;;;;5012144;28;20525;-71
2021/08/03 04:30:10;;;;;;;2.65;1.80;;;17.50;91.70;;;;;;5010293;28;20430;-70
2021/08/03 04:32:56;;;;;;;4.47;2.10;;;17.60;91.60;;;;;;5010214;28;20021;-70
2021/08/03 04:35:42;;;;;;;5.70;1.95;;;17.60;91.50;;;;;;5012517;28;20029;-71
2021/08/03 04:38:27;;;;;;;3.15;1.98;;;17.60;91.60;;;;;;5009130;28;20406;-70
2021/08/03 04:41:13;;;;;;;3.55;2.33;;;17.70;91.50;;;;;;5010222;28;20026;-70
2021/08/03 04:43:59;;;;;;;3.10;2.00;;;17.70;91.40;;;;;;5018533;28;20041;-73
2021/08/03 04:46:45;;;;;;;24.77;4.18;;;17.80;91.50;;;;;;5011256;28;20081;-70
2021/08/03 04:49:31;;;;;;;3.88;2.20;;;17.80;91.60;;;;;;5002459;28;20050;-72
2021/08/03 04:52:17;;;;;;;3.33;1.75;;;17.80;91.60;;;;;;5010970;28;20068;-72
2021/08/03 04:55:03;;;;;;;4.40;1.90;;;17.90;91.60;;;;;;5010954;28;20030;-71
2021/08/03 04:57:49;;;;;;;4.05;2.30;;;17.90;91.50;;;;;;5007634;28;20026;-70
2021/08/03 05:00:35;;;;;;;3.85;1.92;;;18.00;91.60;;;;;;5003239;28;20029;-71
2021/08/03 05:03:21;;;;;;;5.10;2.08;;;18.00;91.50;;;;;;5002486;28;20029;-72
2021/08/03 05:06:08;;;;;;;4.10;2.20;;;18.00;91.50;;;;;;5011137;28;20433;-72
2021/08/03 05:08:53;;;;;;;3.83;2.00;;;18.20;91.40;;;;;;5007828;28;20097;-72
2021/08/03 05:11:39;;;;;;;3.17;2.00;;;18.20;91.40;;;;;;5011283;28;20390;-72
2021/08/03 05:14:25;;;;;;;2.95;1.90;;;18.20;91.30;;;;;;5009323;28;20033;-72
2021/08/03 05:17:11;;;;;;;3.22;2.08;;;18.20;91.40;;;;;;5004698;28;20037;-71
2021/08/03 05:19:57;;;;;;;5.43;2.03;;;18.30;91.40;;;;;;5010689;28;20390;-71
2021/08/03 05:22:44;;;;;;;3.13;2.30;;;18.30;91.40;;;;;;5008099;28;20080;-72
2021/08/03 05:25:30;;;;;;;3.97;2.28;;;18.40;91.70;;;;;;5012376;28;20041;-72
2021/08/03 05:28:15;;;;;;;3.70;2.35;;;18.40;91.40;;;;;;5011062;28;20030;-72
2021/08/03 05:31:01;;;;;;;5.78;2.58;;;18.50;91.40;;;;;;5014341;28;20033;-74
2021/08/03 05:33:47;;;;;;;3.40;1.70;;;18.60;91.50;;;;;;5010551;28;20040;-70
2021/08/03 05:36:34;;;;;;;4.75;2.00;;;18.60;91.40;;;;;;5013525;28;20045;-70
2021/08/03 05:39:19;;;;;;;2.63;1.67;;;18.70;91.40;;;;;;5011209;28;20470;-71
2021/08/03 05:42:05;;;;;;;3.28;1.83;;;18.80;91.20;;;;;;5009352;28;20029;-70
2021/08/03 05:44:31;;;;;;;2.80;1.75;;;18.80;91.30;;;;;;5014152;28;20489;-70
2021/08/03 05:47:16;;;;;;;5.88;2.00;;;18.90;91.30;;;;;;5012688;28;20086;-71
2021/08/03 05:50:00;;;;;;;3.47;2.05;;;18.90;91.20;;;;;;5014198;28;20425;-69
2021/08/03 05:52:44;;;;;;;5.13;2.33;;;19.00;91.30;;;;;;4997641;28;20453;-69
2021/08/03 05:55:28;;;;;;;4.57;2.03;;;19.10;91.30;;;;;;5016294;28;20037;-73
2021/08/03 05:58:12;;;;;;;5.00;2.10;;;19.00;91.30;;;;;;5012105;28;20396;-70
2021/08/03 06:00:56;;;;;;;3.38;1.80;;;19.10;91.30;;;;;;5005017;28;20049;-71
2021/08/03 06:03:40;;;;;;;5.83;2.10;;;19.20;91.30;;;;;;5007046;28;20108;-71
2021/08/03 06:06:26;;;;;;;4.15;2.25;;;19.30;91.30;;;;;;5014465;28;20319;-70
2021/08/03 06:09:13;;;;;;;4.68;2.08;;;19.30;91.20;;;;;;5012342;28;20497;-71
2021/08/03 06:12:01;;;;;;;2.97;1.92;;;19.40;91.00;;;;;;5014473;28;20401;-72
2021/08/03 06:14:48;;;;;;;3.42;2.00;;;19.40;91.00;;;;;;5003083;28;20029;-72
2021/08/03 06:17:38;;;;;;;5.53;2.55;;;19.50;91.10;;;;;;5012820;28;20037;-71
2021/08/03 06:20:22;;;;;;;3.95;2.20;;;19.50;91.20;;;;;;5012206;28;20068;-71
2021/08/03 06:23:09;;;;;;;4.13;2.47;;;19.50;91.10;;;;;;5018506;28;20089;-71
2021/08/03 06:25:57;;;;;;;4.65;1.75;;;19.50;91.10;;;;;;5011698;28;20291;-71
2021/08/03 06:28:44;;;;;;;3.97;2.33;;;19.60;91.20;;;;;;5011052;28;20036;-70
2021/08/03 06:31:28;;;;;;;4.28;2.08;;;19.60;91.10;;;;;;4995359;28;20121;-70
2021/08/03 06:34:12;;;;;;;3.77;1.90;;;19.70;91.00;;;;;;5003450;28;20533;-70
2021/08/03 06:36:56;;;;;;;3.95;2.17;;;19.60;90.90;;;;;;5003129;28;20819;-70
2021/08/03 06:39:41;;;;;;;3.87;1.97;;;19.70;90.80;;;;;;5008523;28;20048;-71
2021/08/03 06:42:52;;;;;;;4.15;1.90;;;19.70;90.80;;;;;;5009007;28;20340;-70
2021/08/03 06:45:37;;;;;;;2.83;1.90;;;19.80;90.80;;;;;;5007617;28;20118;-71
2021/08/03 06:48:50;;;;;;;5.10;2.72;;;19.80;90.80;;;;;;5003852;28;20129;-70
2021/08/03 06:51:41;;;;;;;5.68;2.42;;;19.80;90.70;;;;;;5006171;28;20044;-70
2021/08/03 06:54:30;;;;;;;4.90;2.03;;;19.80;90.70;;;;;;5009064;28;20113;-70
2021/08/03 06:57:16;;;;;;;5.82;2.10;;;19.90;90.70;;;;;;5002941;28;20117;-72
2021/08/03 07:00:08;;;;;;;3.67;2.53;;;19.90;90.80;;;;;;5008832;28;20103;-71
2021/08/03 07:02:55;;;;;;;5.03;1.60;;;20.00;90.80;;;;;;5006837;28;20437;-71
2021/08/03 07:05:53;;;;;;;3.40;2.13;;;20.00;90.60;;;;;;5011182;28;20044;-71
2021/08/03 07:08:38;;;;;;;4.97;1.98;;;20.10;90.70;;;;;;5000941;28;20537;-71
2021/08/03 07:11:23;;;;;;;4.50;1.95;;;20.10;90.50;;;;;;5008766;28;20044;-70
2021/08/03 07:14:08;;;;;;;2.92;1.80;;;20.20;90.70;;;;;;5007675;28;22564;-71
2021/08/03 07:16:54;;;;;;;2.33;1.50;;;20.20;90.70;;;;;;5010049;28;20080;-71
2021/08/03 07:19:39;;;;;;;4.65;2.30;;;20.30;90.40;;;;;;5011032;28;20085;-71
2021/08/03 07:22:24;;;;;;;5.82;1.90;;;20.50;90.30;;;;;;5002337;28;20402;-71
2021/08/03 07:25:10;;;;;;;4.68;2.28;;;20.50;89.20;;;;;;5007158;28;20045;-71
2021/08/03 07:27:54;;;;;;;2.50;1.75;;;20.60;89.50;;;;;;5001980;28;20053;-71
2021/08/03 07:30:42;;;;;;;3.22;1.92;;;20.70;89.70;;;;;;4997606;28;20117;-70
2021/08/03 07:33:26;;;;;;;3.55;1.80;;;20.70;89.10;;;;;;5008856;28;20568;-71
2021/08/03 07:36:14;;;;;;;5.57;1.90;;;20.80;88.80;;;;;;5002455;28;20045;-71
2021/08/03 07:38:59;;;;;;;5.68;2.13;;;20.90;89.10;;;;;;5023456;28;20087;-71
2021/08/03 07:41:43;;;;;;;4.85;2.35;;;21.00;89.20;;;;;;5022116;28;20040;-71
2021/08/03 07:44:27;;;;;;;3.00;1.98;;;21.10;88.70;;;;;;5009477;28;20040;-70
2021/08/03 07:47:12;;;;;;;3.45;1.55;;;21.20;89.00;;;;;;5008174;28;20068;-71
2021/08/03 07:49:58;;;;;;;3.95;2.05;;;21.20;87.90;;;;;;5001957;28;20042;-70
2021/08/03 07:52:44;;;;;;;3.72;1.90;;;21.20;88.80;;;;;;5009632;28;20057;-71
2021/08/03 07:55:30;;;;;;;2.88;1.60;;;21.30;88.60;;;;;;5009066;28;20498;-71
2021/08/03 07:58:16;;;;;;;2.90;1.60;;;21.30;88.10;;;;;;5009112;28;20471;-71
2021/08/03 08:01:04;;;;;;;4.55;3.08;;;21.30;87.60;;;;;;5011840;28;20026;-71
2021/08/03 08:03:49;;;;;;;4.07;1.55;;;21.30;87.30;;;;;;5006067;28;20033;-71
2021/08/03 08:06:35;;;;;;;3.38;1.95;;;21.30;87.50;;;;;;5008245;28;20482;-71
2021/08/03 08:09:21;;;;;;;2.72;1.80;;;21.30;87.20;;;;;;5003815;28;20030;-71
2021/08/03 08:12:07;;;;;;;3.13;1.90;;;21.20;86.90;;;;;;5007360;28;20401;-71
2021/08/03 08:14:53;;;;;;;3.00;1.48;;;21.20;87.40;;;;;;5007004;28;20486;-70
2021/08/03 08:17:38;;;;;;;3.38;1.80;;;21.30;87.20;;;;;;5001587;28;20494;-70
2021/08/03 08:20:24;;;;;;;3.78;2.13;;;21.30;86.90;;;;;;5001699;28;20433;-70
2021/08/03 08:23:12;;;;;;;5.30;2.40;;;21.30;86.20;;;;;;4999305;28;20030;-70
2021/08/03 08:25:58;;;;;;;4.72;1.75;;;21.30;86.60;;;;;;5008651;28;20038;-71
2021/08/03 08:28:44;;;;;;;4.35;2.00;;;21.40;86.90;;;;;;5003555;28;20054;-71
2021/08/03 08:31:30;;;;;;;4.03;1.55;;;21.50;86.20;;;;;;5005259;28;20045;-71
2021/08/03 08:34:16;;;;;;;3.58;1.70;;;21.60;86.10;;;;;;5004788;28;20034;-72
2021/08/03 08:37:02;;;;;;;2.97;1.80;;;21.80;86.00;;;;;;5014684;28;20125;-71
2021/08/03 08:39:47;;;;;;;3.05;1.70;;;22.00;85.70;;;;;;5004662;28;20609;-71
2021/08/03 08:42:34;;;;;;;2.97;1.63;;;22.10;85.10;;;;;;5002837;28;20026;-71
2021/08/03 08:45:20;;;;;;;3.20;1.50;;;22.30;84.20;;;;;;4992623;28;20129;-71
2021/08/03 08:48:10;;;;;;;5.30;1.67;;;22.50;83.70;;;;;;5004303;28;20026;-71
2021/08/03 08:50:56;;;;;;;4.30;2.47;;;22.60;84.10;;;;;;5009378;28;20096;-70
2021/08/03 08:53:42;;;;;;;2.13;1.33;;;22.80;83.10;;;;;;5006032;28;20026;-70
2021/08/03 08:56:28;;;;;;;3.13;1.83;;;22.90;82.60;;;;;;5003455;28;20505;-70
2021/08/03 08:59:14;;;;;;;1.90;1.20;;;23.10;81.60;;;;;;4999262;28;20455;-71
2021/08/03 09:02:00;;;;;;;4.13;1.58;;;23.10;80.60;;;;;;5009456;28;20034;-71
2021/08/03 09:04:46;;;;;;;4.60;1.48;;;23.10;81.20;;;;;;5007062;28;20509;-70
2021/08/03 09:07:49;;;;;;;5.68;1.40;;;23.10;80.40;;;;;;4998478;28;20474;-70
2021/08/03 09:10:46;;;;;;;4.53;1.25;;;23.10;80.30;;;;;;5012277;28;20029;-69
2021/08/03 09:13:48;;;;;;;3.50;1.65;;;23.10;79.60;;;;;;5006662;28;20053;-69
2021/08/03 09:16:46;;;;;;;5.40;1.30;;;23.10;79.10;;;;;;5005303;28;20044;-69
2021/08/03 09:19:38;;;;;;;1.83;1.10;;;23.00;77.30;;;;;;5002707;28;20464;-69
2021/08/03 09:22:28;;;;;;;6.90;3.60;;;23.00;77.10;;;;;;4994300;28;20077;-70
2021/08/03 09:25:16;;;;;;;3.42;1.30;;;23.00;77.50;;;;;;5013920;28;20048;-70
2021/08/03 09:28:04;;;;;;;2.50;1.40;;;23.00;76.70;;;;;;5006278;28;20041;-70
2021/08/03 09:30:51;;;;;;;2.88;1.17;;;22.90;76.80;;;;;;5009916;28;20445;-69
2021/08/03 09:33:46;;;;;;;3.30;1.30;;;22.90;77.20;;;;;;5009893;28;20026;-69
2021/08/03 09:37:06;;;;;;;3.45;1.63;;;22.90;76.40;;;;;;5008417;28;20036;-69
2021/08/03 09:39:52;;;;;;;2.13;1.33;;;22.80;77.70;;;;;;5007290;28;20030;-70
2021/08/03 09:42:38;;;;;;;3.22;1.40;;;22.80;78.20;;;;;;5003045;28;20038;-69
2021/08/03 09:45:07;;;;;;;2.95;1.33;;;22.90;77.80;;;;;;5004050;28;20092;-69
2021/08/03 09:48:06;;;;;;;3.38;1.27;;;23.00;77.50;;;;;;5010597;28;20108;-69
2021/08/03 09:51:07;;;;;;;3.13;1.60;;;23.00;77.90;;;;;;5003671;28;20056;-69
2021/08/03 09:53:52;;;;;;;2.17;1.33;;;23.20;77.20;;;;;;4993467;28;20045;-69
2021/08/03 09:56:36;;;;;;;2.30;1.48;;;23.20;76.60;;;;;;5001552;28;20105;-69
2021/08/03 09:59:33;;;;;;;3.08;1.52;;;23.30;74.60;;;;;;5007563;28;20080;-69
2021/08/03 10:02:22;;;;;;;1.90;1.30;;;23.40;74.30;;;;;;5011260;28;20506;-69
2021/08/03 10:05:06;;;;;;;2.05;0.93;;;23.50;72.60;;;;;;5007560;28;20068;-71
2021/08/03 10:07:50;;;;;;;4.45;1.70;;;23.60;72.20;;;;;;5014892;28;20060;-69
2021/08/03 10:10:35;;;;;;;4.38;1.65;;;23.70;72.30;;;;;;5011983;28;20083;-69
2021/08/03 10:13:19;;;;;;;2.25;1.20;;;23.70;70.90;;;;;;5006763;28;20037;-69
2021/08/03 10:16:03;;;;;;;2.15;1.17;;;23.70;69.50;;;;;;5011473;28;20032;-69
2021/08/03 10:18:53;;;;;;;1.65;1.00;;;23.70;69.70;;;;;;5013957;28;20064;-69
2021/08/03 10:21:47;;;;;;;2.70;1.20;;;23.70;70.00;;;;;;5010351;28;20107;-70
2021/08/03 10:24:34;;;;;;;3.35;1.33;;;23.80;70.00;;;;;;5013527;28;20075;-69
2021/08/03 10:27:18;;;;;;;3.53;1.35;;;23.80;69.50;;;;;;5017507;28;20129;-69
2021/08/03 10:30:03;;;;;;;4.07;1.40;;;23.90;69.70;;;;;;5013997;28;20028;-69
2021/08/03 10:32:49;;;;;;;4.93;1.52;;;24.00;70.40;;;;;;4999235;28;20048;-69
2021/08/03 10:35:49;;;;;;;3.00;1.35;;;24.10;70.40;;;;;;5010450;28;20128;-69
2021/08/03 10:38:33;;;;;;;2.55;1.40;;;24.00;69.40;;;;;;4997496;28;20025;-69
2021/08/03 10:41:18;;;;;;;3.50;1.38;;;24.10;69.40;;;;;;5012327;28;20036;-69
2021/08/03 10:44:04;;;;;;;1.73;1.30;;;24.10;69.80;;;;;;5012709;28;20057;-69
2021/08/03 10:46:48;;;;;;;1.90;1.20;;;24.10;69.40;;;;;;5011996;28;20045;-69
2021/08/03 10:49:55;;;;;;;2.20;1.20;;;24.10;67.30;;;;;;5033079;28;20048;-69
2021/08/03 10:52:46;;;;;;;3.33;1.50;;;24.00;67.60;;;;;;5015567;28;20099;-70
2021/08/03 10:55:39;;;;;;;1.95;1.20;;;24.00;67.70;;;;;;5013703;28;20036;-68
2021/08/03 10:58:27;;;;;;;4.57;1.60;;;24.00;68.40;;;;;;5013515;28;20088;-68
2021/08/03 11:01:11;;;;;;;8.32;1.70;;;24.10;68.70;;;;;;4984272;28;20554;-68
2021/08/03 11:03:55;;;;;;;3.15;1.70;;;24.10;68.20;;;;;;5009423;28;20085;-68
2021/08/03 11:06:39;;;;;;;2.33;1.35;;;24.20;67.60;;;;;;5008660;28;20045;-69
2021/08/03 11:09:33;;;;;;;4.40;1.90;;;24.20;68.50;;;;;;5020268;28;20076;-69
2021/08/03 11:12:48;;;;;;;4.70;2.25;;;24.30;68.80;;;;;;5004861;28;20565;-68
2021/08/03 11:15:34;;;;;;;4.05;2.25;;;24.40;68.40;;;;;;5012136;28;20509;-68
2021/08/03 11:18:41;;;;;;;3.42;1.50;;;24.40;67.50;;;;;;5012592;28;20064;-69
2021/08/03 11:21:27;;;;;;;3.03;1.83;;;24.40;66.80;;;;;;5032621;28;20292;-69
2021/08/03 11:24:17;;;;;;;3.58;1.80;;;24.50;67.30;;;;;;5004285;28;20041;-69
2021/08/03 11:27:02;;;;;;;4.57;1.70;;;24.60;67.20;;;;;;5009077;28;20120;-69
2021/08/03 11:29:46;;;;;;;2.40;1.63;;;24.60;65.40;;;;;;5009594;28;20033;-70
2021/08/03 11:32:33;;;;;;;2.05;1.40;;;24.60;64.50;;;;;;5011219;28;20037;-69
2021/08/03 11:35:27;;;;;;;4.03;1.88;;;24.60;64.70;;;;;;5012444;28;20056;-69
2021/08/03 11:38:15;;;;;;;2.92;1.75;;;24.60;64.90;;;;;;5011795;28;20117;-69
2021/08/03 11:40:59;;;;;;;3.78;1.88;;;24.60;66.10;;;;;;5011383;28;20041;-68
2021/08/03 11:43:43;;;;;;;3.72;1.60;;;24.60;65.00;;;;;;5006604;28;20121;-69
2021/08/03 11:46:28;;;;;;;5.45;2.10;;;24.60;65.90;;;;;;5007499;28;20082;-69
2021/08/03 11:49:12;;;;;;;4.38;1.67;;;24.70;65.50;;;;;;5011316;28;20065;-69
2021/08/03 11:52:10;;;;;;;2.90;1.70;;;24.80;65.40;;;;;;4992304;28;20041;-69
2021/08/03 11:54:56;;;;;;;3.05;1.75;;;24.90;63.80;;;;;;5000081;28;20022;-69
2021/08/03 11:57:42;;;;;;;4.95;1.80;;;25.00;63.40;;;;;;5009942;28;20022;-68
2021/08/03 12:00:28;;;;;;;3.28;1.60;;;25.00;62.70;;;;;;5004936;28;20026;-69
2021/08/03 12:03:28;;;;;;;2.88;1.70;;;25.00;61.90;;;;;;5008677;28;20105;-68
2021/08/03 12:06:14;;;;;;;3.00;1.30;;;25.00;63.70;;;;;;5011923;28;20092;-69
2021/08/03 12:09:00;;;;;;;3.63;1.80;;;25.10;62.00;;;;;;4997544;28;20034;-68
2021/08/03 12:11:56;;;;;;;4.07;1.70;;;25.20;62.50;;;;;;5007005;28;20033;-69
2021/08/03 12:14:42;;;;;;;2.88;1.60;;;25.30;61.40;;;;;;5012407;28;20105;-69
2021/08/03 12:17:28;;;;;;;3.22;1.55;;;25.20;62.30;;;;;;5013602;28;20087;-69
2021/08/03 12:20:33;;;;;;;3.20;1.60;;;25.20;62.20;;;;;;4998002;28;20036;-69
2021/08/03 12:23:23;;;;;;;3.33;2.10;;;25.20;62.30;;;;;;5011333;28;20026;-69
2021/08/03 12:26:15;;;;;;;4.93;2.03;;;25.20;61.90;;;;;;5013403;28;20289;-69
2021/08/03 12:29:01;;;;;;;3.13;1.80;;;25.10;62.70;;;;;;5001959;28;20022;-69
2021/08/03 12:31:47;;;;;;;2.70;1.90;;;25.10;62.30;;;;;;5006209;28;20045;-69
2021/08/03 12:34:37;;;;;;;3.42;1.83;;;24.90;61.50;;;;;;5009700;28;20030;-70
2021/08/03 12:37:32;;;;;;;2.90;1.58;;;24.90;60.80;;;;;;5003383;28;20049;-69
2021/08/03 12:40:28;;;;;;;;;;;24.80;61.70;;;;;;5032074;28;20466;-70
2021/08/03 12:43:14;;;;;;;3.47;1.80;;;24.80;61.20;;;;;;5008146;28;19915;-70
2021/08/03 12:46:00;;;;;;;2.92;1.58;;;24.70;59.60;;;;;;5009401;28;20037;-70
2021/08/03 12:48:51;;;;;;;3.25;1.75;;;24.70;58.80;;;;;;5010614;28;20117;-71
2021/08/03 12:51:36;;;;;;;3.15;1.70;;;24.80;58.30;;;;;;5010376;28;20397;-69
2021/08/03 12:54:22;;;;;;;4.50;1.70;;;24.70;58.20;;;;;;4995722;28;20045;-69
2021/08/03 12:57:12;;;;;;;3.78;1.70;;;24.80;58.30;;;;;;5007329;28;20056;-68
2021/08/03 12:59:58;;;;;;;4.88;1.80;;;24.90;58.80;;;;;;5007190;28;20084;-68
2021/08/03 13:02:44;;;;;;;3.72;1.67;;;24.90;58.00;;;;;;5004924;28;20065;-68
2021/08/03 13:05:31;;;;;;;3.22;2.00;;;25.00;57.20;;;;;;4999407;28;20034;-69
2021/08/03 13:08:16;;;;;;;4.53;2.20;;;25.00;56.60;;;;;;5002837;28;20426;-69
2021/08/03 13:11:03;;;;;;;3.78;2.35;;;25.10;57.50;;;;;;5005847;28;20402;-69
2021/08/03 13:13:49;;;;;;;6.13;2.08;;;25.10;58.60;;;;;;5007524;28;20096;-69
2021/08/03 13:16:35;;;;;;;6.00;2.75;;;25.20;59.20;;;;;;5009771;28;20018;-68
2021/08/03 13:19:25;;;;;;;2.53;1.83;;;25.40;58.30;;;;;;4995362;28;20038;-68
2021/08/03 13:22:11;;;;;;;3.00;1.95;;;25.40;58.10;;;;;;5002527;28;20030;-68
2021/08/03 13:24:56;;;;;;;2.70;1.90;;;25.50;58.50;;;;;;5000907;28;20113;-68
2021/08/03 13:27:42;;;;;;;2.58;1.77;;;25.70;58.70;;;;;;5003996;28;20034;-68
2021/08/03 13:30:28;;;;;;;5.43;1.70;;;25.80;58.10;;;;;;5007094;28;20022;-69
2021/08/03 13:33:14;;;;;;;4.78;1.88;;;25.80;55.70;;;;;;5000827;28;20033;-69
2021/08/03 13:36:00;;;;;;;2.05;1.60;;;25.90;56.40;;;;;;4997419;28;20026;-68
2021/08/03 13:38:45;;;;;;;4.68;1.95;;;26.00;56.30;;;;;;4998832;28;20236;-68
2021/08/03 13:41:33;;;;;;;2.33;1.60;;;26.00;55.60;;;;;;4999464;28;20099;-69
2021/08/03 13:44:19;;;;;;;2.60;1.60;;;26.20;55.40;;;;;;4997606;28;20646;-68
2021/08/03 13:47:03;;;;;;;2.80;1.80;;;26.20;55.30;;;;;;5003224;28;20049;-68
2021/08/03 13:49:48;;;;;;;4.22;1.83;;;26.30;55.80;;;;;;5001247;28;20145;-69
2021/08/03 13:52:32;;;;;;;5.13;2.10;;;26.30;54.50;;;;;;4993745;28;20045;-69
2021/08/03 13:55:16;;;;;;;3.22;1.80;;;26.30;55.70;;;;;;5004017;28;20033;-69
2021/08/03 13:58:01;;;;;;;3.03;1.92;;;26.40;54.60;;;;;;4997537;28;20049;-69
2021/08/03 14:00:45;;;;;;;3.42;1.75;;;26.50;55.00;;;;;;5003357;28;20096;-69
2021/08/03 14:03:29;;;;;;;5.13;1.80;;;26.50;53.70;;;;;;5006098;28;20045;-68
2021/08/03 14:05:54;;;;;;;2.45;1.70;;;26.50;54.30;;;;;;5010733;28;20038;-69
2021/08/03 14:08:20;;;;;;;3.33;1.85;;;26.50;53.70;;;;;;5004623;28;20059;-67
2021/08/03 14:10:45;;;;;;;2.80;1.80;;;26.50;54.50;;;;;;5005434;28;20116;-67
2021/08/03 14:13:11;;;;;;;3.22;1.80;;;26.40;54.60;;;;;;4996336;28;20080;-68
2021/08/03 14:15:36;;;;;;;3.25;2.05;;;26.40;54.00;;;;;;4997017;28;20261;-69
2021/08/03 14:18:02;;;;;;;2.40;1.80;;;26.40;54.60;;;;;;5008335;28;20026;-69
2021/08/03 14:20:28;;;;;;;2.58;1.50;;;26.40;55.00;;;;;;5006058;28;20438;-69
2021/08/03 14:22:53;;;;;;;2.50;1.77;;;26.40;53.70;;;;;;5005165;28;20057;-69
2021/08/03 14:25:19;;;;;;;2.97;1.73;;;26.40;53.90;;;;;;5004512;28;20082;-68
2021/08/03 14:27:44;;;;;;;3.55;1.58;;;26.40;54.50;;;;;;5001798;28;20522;-69
2021/08/03 14:30:10;;;;;;;3.72;2.20;;;26.40;54.90;;;;;;5006088;28;20501;-69
2021/08/03 14:32:35;;;;;;;3.58;1.60;;;26.30;54.60;;;;;;5005096;28;20030;-69